Terminal Aerodrome Forecast
Issued by NWS Nashville, TN

Home | Current Version | Previous Version | Text Only | Print | Product List | Glossary On
Versions: 1 2 3 4 5 6 7 8 9 10 11 12 13 14 15 16 17 18 19 20 21 22 23 24
000
FTUS44 KOHX 181140
TAFBNA
TAF
KBNA 181140Z 1812/1912 15006KT P6SM BKN100 BKN150 OVC250
     FM181500 16010KT P6SM BKN100
     FM181700 16012KT P6SM VCSH BKN100
     FM190000 15008KT P6SM BKN080=

USA.gov is the U.S. government's official web portal to all federal, state and local government web resources and services.